Tuesday, June 28, 2016, 1:54 AM EDT
Back to Local

KMPO, Mt Pocono Pocono Mountains

Location: Pocono Summit, PA, United States Lat: 41.133
Local Time: 1:54 AM EDT ( 5:54 GMT) Lon: -75.383
Time Zone: US/Eastern Elev: 1915 ft

Show me the last for .
Show Decoded

2016-06-28 00:53 METAR KMPO 280453Z AUTO 23004KT 7SM OVC004 19/18 A3003 RMK AO2 SLP155 T01890183
                 402610150 $ =
2016-06-27 23:53 METAR KMPO 280353Z AUTO 23007KT 7SM OVC004 19/18 A3003 RMK AO2 SLP157 T01890183
                 $ =
2016-06-27 22:53 METAR KMPO 280253Z AUTO 21006KT 9SM OVC006 19/18 A3005 RMK AO2 SLP163 T01890183
                 51004 $ =
2016-06-27 22:15 METAR KMPO 280215Z AUTO 22006KT 8SM OVC006 19/18 A3005 RMK AO2 CIG 002V010
                 T01940183 $ =
2016-06-27 22:07 METAR KMPO 280207Z AUTO 21006KT 9SM SCT001 OVC007 19/18 A3005 RMK AO2 T01940183
                 $ =
2016-06-27 21:53 METAR KMPO 280153Z AUTO 22006KT 6SM BR BKN001 OVC009 19/19 A3004 RMK AO2 SLP163
                 T01940189 $ =
2016-06-27 21:47 METAR KMPO 280147Z AUTO 22006KT 2SM BR OVC001 19/19 A3004 RMK AO2 $ =
2016-06-27 21:21 METAR KMPO 280121Z AUTO 20006KT 1/2SM FG VV002 19/19 A3004 RMK AO2 T01940189 $ =
2016-06-27 21:08 METAR KMPO 280108Z AUTO 20005KT 1 3/4SM BR OVC002 19/19 A3004 RMK AO2 T01940189
                 $ =
2016-06-27 20:53 METAR KMPO 280053Z AUTO 20005KT 6SM BR OVC003 19/19 A3004 RMK AO2 SLP162
                 T01940189 $ =
2016-06-27 19:53 METAR KMPO 272353Z AUTO 18004KT 8SM OVC004 19/19 A3003 RMK AO2 SLP161 60017
                 T01940189 10239 20194 55002 $ =
2016-06-27 18:53 METAR KMPO 272253Z AUTO 20006KT 10SM OVC005 20/19 A3003 RMK AO2 RAE02 SLP161
                 P0000 T02000189 $ =
2016-06-27 18:36 METAR KMPO 272236Z AUTO 22005KT 10SM OVC006 20/18 A3003 RMK AO2 RAE02 CIG
                 005V011 P0000 T02000183 $ =
2016-06-27 17:53 METAR KMPO 272153Z AUTO 21003KT 7SM -RA OVC007 19/18 A3003 RMK AO2 RAB06 CIG
                 004V009 SLP163 P0009 T01940183 $ =
2016-06-27 16:53 METAR KMPO 272053Z AUTO 23004KT 10SM BKN008 BKN014 OVC033 19/18 A3004 RMK AO2
                 RAE00B14E35 CIG 006V011 SLP166 P0002 60008 T01940183 58007 $ =
2016-06-27 16:51 METAR KMPO 272051Z AUTO 22005KT 10SM BKN008 BKN014 OVC033 19/18 A3004 RMK AO2
                 RAE00B14E35 CIG 006V011 P0002 $ =
2016-06-27 16:43 METAR KMPO 272043Z AUTO 22006KT 10SM SCT009 BKN027 OVC033 19/18 A3004 RMK AO2
                 RAE00B14E35 P0002 T01940183 $ =
2016-06-27 16:11 METAR KMPO 272011Z AUTO 22006KT 10SM FEW009 BKN032 OVC055 20/18 A3004 RMK AO2
                 RAE00 P0000 T02000183 $ =
2016-06-27 15:53 METAR KMPO 271953Z AUTO 23007KT 10SM -RA 20/18 A3005 RMK AO2 SLP169 P0006
                 T02000183 $ =
2016-06-27 14:53 METAR KMPO 271853Z AUTO 24010KT 9SM -RA OVC030 22/16 A3006 RMK AO2 RAB12E23B52
                 SLP170 P0000 T02170161 =
2016-06-27 13:53 METAR KMPO 271753Z AUTO 20011KT 10SM SCT033 BKN046 BKN060 24/16 A3006 RMK AO2
                 SLP169 T02390156 10261 20189 58012 =
2016-06-27 12:53 METAR KMPO 271653Z AUTO 22012G18KT 10SM FEW033 SCT060 26/16 A3007 RMK AO2 SLP171
                 T02610156 =
2016-06-27 11:53 METAR KMPO 271553Z AUTO 19013KT 160V220 10SM CLR 24/16 A3010 RMK AO2 SLP180
                 T02390156 =
2016-06-27 10:53 METAR KMPO 271453Z AUTO 18011G17KT 10SM CLR 23/14 A3010 RMK AO2 SLP181 T02280144
                 58007 =
2016-06-27 09:53 METAR KMPO 271353Z AUTO 20011KT 10SM CLR 22/13 A3011 RMK AO2 SLP184 T02170133 =
2016-06-27 08:53 METAR KMPO 271253Z AUTO 24009KT 10SM CLR 21/12 A3012 RMK AO2 SLP188 T02060117 =
2016-06-27 07:53 METAR KMPO 271153Z AUTO 25007KT 10SM CLR 19/11 A3012 RMK AO2 SLP189 T01890111
                 10189 20150 56003 $ =
2016-06-27 06:53 METAR KMPO 271053Z AUTO 24006KT 10SM CLR 17/11 A3012 RMK AO2 SLP189 T01720111 $
                 =
2016-06-27 05:53 METAR KMPO 270953Z AUTO 26004KT 10SM CLR 15/11 A3013 RMK AO2 SLP191 T01500106 $
                 =
2016-06-27 04:53 METAR KMPO 270853Z AUTO 27004KT 10SM CLR 16/10 A3013 RMK AO2 SLP192 T01560100
                 56010 $ =
2016-06-27 03:53 METAR KMPO 270753Z AUTO 27004KT 10SM CLR 15/09 A3013 RMK AO2 SLP194 T01500094 $
                 =
2016-06-27 02:53 METAR KMPO 270653Z AUTO 27005KT 10SM 17/09 A3015 RMK AO2 SLP198 T01670089 $ =

Support USWX by starting your Amazon purchase here.